Time;durP1;ratioP1;P1;durP2;ratioP2;P2;SDS_P1;SDS_P2;PMS_P1;PMS_P2;Temp;Humidity;BMP_temperature;BMP_pressure;BME280_temperature;BME280_humidity;BME280_pressure;Samples;Min_cycle;Max_cycle;Signal;HPM_P1;HPM_P2
2023/04/14 03:01:03;;;;;;;41.07;38.13;;;5.10;99.90;;;;;;5593562;23;20686;-73
2023/04/14 03:03:29;;;;;;;58.07;54.27;;;5.00;99.90;;;;;;4915349;29;20183;-74
2023/04/14 03:05:56;;;;;;;36.93;33.70;;;5.00;99.90;;;;;;4918436;29;20213;-74
2023/04/14 03:08:23;;;;;;;24.40;19.93;;;4.90;99.90;;;;;;4901346;29;20179;-74
2023/04/14 03:10:51;;;;;;;24.67;20.23;;;5.00;99.90;;;;;;4900814;29;20701;-74
2023/04/14 03:13:20;;;;;;;19.80;15.83;;;5.00;99.90;;;;;;4919990;29;20211;-74
2023/04/14 03:15:47;;;;;;;19.43;12.70;;;4.90;99.90;;;;;;4943329;23;20230;-81
2023/04/14 03:18:14;;;;;;;19.87;14.03;;;4.90;99.90;;;;;;4938461;29;20222;-80
2023/04/14 03:20:42;;;;;;;21.77;15.53;;;4.90;99.90;;;;;;4938108;29;20213;-81
2023/04/14 03:23:11;;;;;;;17.83;15.43;;;4.90;99.90;;;;;;4918531;29;20194;-81
2023/04/14 03:25:38;;;;;;;18.43;14.57;;;5.00;99.90;;;;;;4902295;29;20215;-80
2023/04/14 03:28:08;;;;;;;20.67;14.80;;;5.00;99.90;;;;;;4913950;29;20191;-81
2023/04/14 03:30:38;;;;;;;17.80;14.00;;;5.00;99.90;;;;;;4908929;29;20182;-81
2023/04/14 03:33:11;;;;;;;22.57;14.27;;;5.00;99.90;;;;;;4913639;29;20187;-81
2023/04/14 03:35:37;;;;;;;27.07;15.23;;;5.10;99.90;;;;;;4920355;29;20214;-81
2023/04/14 03:38:07;;;;;;;23.13;16.83;;;5.10;99.90;;;;;;4903538;29;20187;-81
2023/04/14 03:40:37;;;;;;;24.03;17.80;;;5.10;99.90;;;;;;4903070;29;20246;-81
2023/04/14 03:43:08;;;;;;;28.37;15.07;;;5.10;99.90;;;;;;4921175;29;20187;-80
2023/04/14 03:45:37;;;;;;;20.17;14.47;;;5.00;99.90;;;;;;4921451;29;20247;-81
2023/04/14 03:48:06;;;;;;;25.37;16.13;;;4.90;99.90;;;;;;4920222;29;20262;-81
2023/04/14 03:50:35;;;;;;;34.00;14.23;;;4.90;99.90;;;;;;4902801;29;20270;-82
2023/04/14 03:53:04;;;;;;;61.97;17.50;;;4.90;99.90;;;;;;4924076;29;20629;-81
2023/04/14 03:55:34;;;;;;;25.30;16.57;;;4.90;99.90;;;;;;4908503;29;20585;-81
2023/04/14 03:58:01;;;;;;;24.50;19.87;;;4.90;99.90;;;;;;4921767;29;20253;-81
2023/04/14 04:00:28;;;;;;;38.03;16.00;;;4.90;99.90;;;;;;4907462;29;20327;-80
2023/04/14 04:02:55;;;;;;;21.17;14.83;;;4.80;99.90;;;;;;4914602;29;20198;-81
2023/04/14 04:05:21;;;;;;;38.60;14.00;;;4.80;99.90;;;;;;4936133;29;20221;-81
2023/04/14 04:07:49;;;;;;;16.50;14.73;;;4.80;99.90;;;;;;4905269;29;20203;-82
2023/04/14 04:10:16;;;;;;;53.93;15.47;;;4.70;99.90;;;;;;4925805;29;20183;-81
2023/04/14 04:12:46;;;;;;;41.43;13.93;;;4.70;99.90;;;;;;4932176;29;20211;-80
2023/04/14 04:15:12;;;;;;;37.77;12.07;;;4.70;99.90;;;;;;4920876;29;20222;-81
2023/04/14 04:17:40;;;;;;;32.93;12.17;;;4.60;99.90;;;;;;4908248;29;20606;-81
2023/04/14 04:20:13;;;;;;;45.43;13.23;;;4.60;99.90;;;;;;4919503;29;20222;-81
2023/04/14 04:22:41;;;;;;;47.53;11.67;;;4.60;99.90;;;;;;4919581;29;20254;-81
2023/04/14 04:25:11;;;;;;;82.43;13.47;;;4.50;99.90;;;;;;4918928;29;20270;-81
2023/04/14 04:27:36;;;;;;;91.63;13.57;;;4.50;99.90;;;;;;4902150;29;20194;-81
2023/04/14 04:30:08;;;;;;;90.97;19.53;;;4.50;99.90;;;;;;4919079;29;20187;-81
2023/04/14 04:32:38;;;;;;;108.47;38.70;;;4.50;99.90;;;;;;4918250;29;20210;-81
2023/04/14 04:35:07;;;;;;;57.67;23.83;;;4.50;99.90;;;;;;4918952;29;20528;-81
2023/04/14 04:37:34;;;;;;;90.43;34.93;;;4.60;99.90;;;;;;4916442;29;20187;-71
2023/04/14 04:40:00;;;;;;;119.10;34.30;;;4.60;99.90;;;;;;4916244;29;20188;-71
2023/04/14 04:42:25;;;;;;;83.63;40.77;;;4.50;99.90;;;;;;4916630;29;20278;-72
2023/04/14 04:44:51;;;;;;;63.40;29.30;;;4.60;99.90;;;;;;4916432;29;20270;-71
2023/04/14 04:47:17;;;;;;;102.00;14.90;;;4.60;99.90;;;;;;4916589;29;20810;-71
2023/04/14 04:49:42;;;;;;;55.80;10.83;;;4.60;99.90;;;;;;4915537;29;20719;-71
2023/04/14 04:52:08;;;;;;;108.73;15.53;;;4.60;99.90;;;;;;4899299;29;20182;-72
2023/04/14 04:54:34;;;;;;;121.57;15.70;;;4.60;99.90;;;;;;4916354;29;20219;-71
2023/04/14 04:57:00;;;;;;;155.20;14.67;;;4.60;99.90;;;;;;4915243;29;20344;-72
2023/04/14 04:59:26;;;;;;;127.23;13.87;;;4.60;99.90;;;;;;4931385;29;20194;-72
2023/04/14 05:01:52;;;;;;;115.40;16.00;;;4.60;99.90;;;;;;4935174;29;20605;-72
2023/04/14 05:04:18;;;;;;;118.60;17.50;;;4.60;99.90;;;;;;4935300;29;20595;-71
2023/04/14 05:06:43;;;;;;;196.37;21.00;;;4.60;99.90;;;;;;4935087;29;20218;-72
2023/04/14 05:09:09;;;;;;;136.37;17.80;;;4.60;99.90;;;;;;4924451;29;20227;-72
2023/04/14 05:11:35;;;;;;;91.60;13.13;;;4.60;99.90;;;;;;4939041;29;20215;-72
2023/04/14 05:14:01;;;;;;;77.10;15.37;;;4.60;99.90;;;;;;4926878;29;20917;-72
2023/04/14 05:16:27;;;;;;;88.53;12.93;;;4.60;99.90;;;;;;4915875;29;20329;-71
2023/04/14 05:18:53;;;;;;;66.90;14.17;;;4.60;99.90;;;;;;4922674;29;20270;-72
2023/04/14 05:21:19;;;;;;;69.50;15.60;;;4.70;99.90;;;;;;4898401;29;20195;-72
2023/04/14 05:23:46;;;;;;;55.00;13.77;;;4.70;99.90;;;;;;4915778;29;20312;-72
2023/04/14 05:26:12;;;;;;;50.37;14.30;;;4.80;99.90;;;;;;4915936;29;20306;-71
2023/04/14 05:28:39;;;;;;;34.37;13.27;;;4.80;99.90;;;;;;4915002;29;20191;-71
2023/04/14 05:31:05;;;;;;;59.77;12.87;;;4.80;99.90;;;;;;4915471;29;20278;-71
2023/04/14 05:33:30;;;;;;;19.57;12.73;;;4.80;99.90;;;;;;4915993;29;20191;-71
2023/04/14 05:35:56;;;;;;;37.43;14.23;;;4.80;99.90;;;;;;4914975;29;20214;-71
2023/04/14 05:38:22;;;;;;;74.73;15.20;;;4.80;99.90;;;;;;4915043;29;20189;-71
2023/04/14 05:40:48;;;;;;;80.60;12.90;;;4.70;99.90;;;;;;4915487;29;20194;-72
2023/04/14 05:43:15;;;;;;;69.27;13.27;;;4.80;99.90;;;;;;4915312;29;20187;-71
2023/04/14 05:45:41;;;;;;;42.47;14.23;;;4.90;99.90;;;;;;4898905;29;20207;-72
2023/04/14 05:48:08;;;;;;;43.90;15.90;;;4.90;99.90;;;;;;4915493;29;20242;-72
2023/04/14 05:50:34;;;;;;;51.33;13.20;;;4.90;99.90;;;;;;4914672;29;20214;-71
2023/04/14 05:53:00;;;;;;;72.70;21.53;;;4.90;99.90;;;;;;4915681;29;20666;-72
2023/04/14 05:55:26;;;;;;;43.83;14.67;;;4.80;99.90;;;;;;4914466;29;20203;-71
2023/04/14 05:57:52;;;;;;;90.17;22.10;;;4.80;99.90;;;;;;4914394;29;20209;-72
2023/04/14 06:00:19;;;;;;;75.40;20.13;;;4.90;99.90;;;;;;4914566;29;20195;-72
2023/04/14 06:02:45;;;;;;;60.43;27.87;;;4.90;99.90;;;;;;4914881;29;20711;-72
2023/04/14 06:05:11;;;;;;;125.77;20.97;;;5.10;99.90;;;;;;4914775;29;20191;-72
2023/04/14 06:07:38;;;;;;;43.23;12.30;;;5.20;99.90;;;;;;4915453;29;20849;-72
2023/04/14 06:10:04;;;;;;;82.20;12.03;;;5.30;99.90;;;;;;4914533;29;20190;-72
2023/04/14 06:12:30;;;;;;;83.70;12.90;;;5.40;99.90;;;;;;4915225;29;20190;-72
2023/04/14 06:14:57;;;;;;;49.33;12.30;;;5.40;99.90;;;;;;4904871;29;20187;-72
2023/04/14 06:17:23;;;;;;;44.33;12.53;;;5.50;99.90;;;;;;4898356;29;20192;-72
2023/04/14 06:19:49;;;;;;;18.20;10.00;;;5.50;99.90;;;;;;4914475;29;20190;-72
2023/04/14 06:22:18;;;;;;;18.37;9.53;;;5.50;99.90;;;;;;4933824;29;20213;-71
2023/04/14 06:24:47;;;;;;;41.70;10.73;;;5.50;99.90;;;;;;4955326;29;20250;-72
2023/04/14 06:27:14;;;;;;;14.17;10.10;;;5.50;99.90;;;;;;4947602;29;20713;-72
2023/04/14 06:29:40;;;;;;;24.13;13.43;;;5.50;99.90;;;;;;4917665;29;20542;-72
2023/04/14 06:32:06;;;;;;;14.10;12.60;;;5.60;99.90;;;;;;4918245;29;20670;-71
2023/04/14 06:34:32;;;;;;;21.70;14.43;;;5.80;99.90;;;;;;4932954;29;20201;-71
2023/04/14 06:36:58;;;;;;;27.33;12.20;;;6.00;99.90;;;;;;4933540;29;20234;-72
2023/04/14 06:39:26;;;;;;;40.77;12.20;;;6.20;99.90;;;;;;4920057;29;20187;-72
2023/04/14 06:41:52;;;;;;;25.20;10.83;;;6.40;99.90;;;;;;4917601;29;20194;-72
2023/04/14 06:44:17;;;;;;;29.20;13.40;;;6.50;99.90;;;;;;4914555;29;20206;-70
2023/04/14 06:46:43;;;;;;;17.60;12.93;;;6.60;99.90;;;;;;4898147;29;20218;-72
2023/04/14 06:49:09;;;;;;;12.00;11.00;;;6.70;99.90;;;;;;4913967;29;20190;-70
2023/04/14 06:51:35;;;;;;;12.23;11.13;;;6.60;99.90;;;;;;4914386;29;20663;-72
2023/04/14 06:54:00;;;;;;;12.73;10.73;;;6.50;99.90;;;;;;4914569;29;20183;-72
2023/04/14 06:56:26;;;;;;;13.00;10.20;;;6.50;99.90;;;;;;4914500;29;20289;-72
2023/04/14 06:58:52;;;;;;;14.83;13.33;;;6.50;99.90;;;;;;4896816;29;20603;-72
2023/04/14 07:01:18;;;;;;;14.90;13.40;;;6.80;99.90;;;;;;4914250;29;20197;-72
2023/04/14 07:03:45;;;;;;;13.50;11.23;;;7.30;99.90;;;;;;4914489;29;20183;-73
2023/04/14 07:06:13;;;;;;;28.10;26.13;;;7.80;99.90;;;;;;4913964;29;20215;-72
2023/04/14 07:08:39;;;;;;;22.73;20.93;;;8.00;99.90;;;;;;4917714;29;20180;-72
2023/04/14 07:11:07;;;;;;;12.17;11.20;;;7.90;99.90;;;;;;4933294;29;20186;-72
2023/04/14 07:13:34;;;;;;;17.23;15.63;;;8.00;99.90;;;;;;4933143;29;20182;-72
2023/04/14 07:16:05;;;;;;;12.47;11.43;;;8.30;99.90;;;;;;4933323;29;20297;-72
2023/04/14 07:18:31;;;;;;;12.10;10.97;;;8.70;99.90;;;;;;4926497;29;20191;-72
2023/04/14 07:20:57;;;;;;;12.50;11.50;;;9.10;99.90;;;;;;4913962;29;20270;-72
2023/04/14 07:23:23;;;;;;;13.10;12.10;;;9.30;99.90;;;;;;4914681;29;20723;-72
2023/04/14 07:25:57;;;;;;;10.67;9.63;;;9.60;99.90;;;;;;4925897;29;20219;-73
2023/04/14 07:28:24;;;;;;;12.93;11.80;;;10.00;99.90;;;;;;4929030;29;20187;-72
2023/04/14 07:30:51;;;;;;;11.50;10.03;;;10.10;99.90;;;;;;4914720;29;20191;-71
2023/04/14 07:33:17;;;;;;;12.77;11.80;;;10.20;99.90;;;;;;4914641;29;20191;-71
2023/04/14 07:35:51;;;;;;;12.57;11.37;;;10.80;99.90;;;;;;4913873;29;20262;-71
2023/04/14 07:38:18;;;;;;;12.53;11.47;;;11.70;99.90;;;;;;4896956;29;20191;-71
2023/04/14 07:40:44;;;;;;;25.03;22.97;;;12.40;99.90;;;;;;4914152;29;20183;-71
2023/04/14 07:43:10;;;;;;;14.47;9.10;;;12.90;99.90;;;;;;4914133;29;20529;-71
2023/04/14 07:45:37;;;;;;;8.73;7.93;;;13.30;99.90;;;;;;4916300;29;20203;-71
2023/04/14 07:48:03;;;;;;;23.90;21.90;;;14.00;99.90;;;;;;4933910;29;20190;-71
2023/04/14 07:50:29;;;;;;;20.97;19.23;;;14.50;99.90;;;;;;4917135;29;20247;-72
2023/04/14 07:52:55;;;;;;;8.40;7.70;;;14.80;99.90;;;;;;4917651;29;20699;-71
2023/04/14 07:55:20;;;;;;;8.00;7.10;;;15.30;99.90;;;;;;4917491;29;20207;-71
2023/04/14 07:57:46;;;;;;;14.07;8.77;;;15.70;99.90;;;;;;4917390;29;20676;-71
2023/04/14 08:00:12;;;;;;;10.87;9.77;;;15.70;99.90;;;;;;4916910;29;20202;-72
2023/04/14 08:02:38;;;;;;;15.23;14.10;;;15.90;99.90;;;;;;4917514;29;20710;-71
2023/04/14 08:05:04;;;;;;;16.17;14.83;;;15.50;99.90;;;;;;4916993;29;20223;-72
2023/04/14 08:07:31;;;;;;;17.93;16.70;;;15.30;99.90;;;;;;4900273;29;20186;-72
2023/04/14 08:09:57;;;;;;;15.93;14.77;;;15.30;99.90;;;;;;4930594;29;20183;-72
2023/04/14 08:12:25;;;;;;;14.67;13.77;;;14.80;99.90;;;;;;4936042;29;20253;-72
2023/04/14 08:14:52;;;;;;;15.47;14.17;;;14.60;99.90;;;;;;4936189;29;20718;-72
2023/04/14 08:17:19;;;;;;;8.77;5.50;;;14.20;99.90;;;;;;4935884;29;20809;-71
2023/04/14 08:19:45;;;;;;;9.40;8.70;;;13.40;99.90;;;;;;4903706;29;20250;-74
2023/04/14 08:22:11;;;;;;;9.93;8.93;;;13.30;99.90;;;;;;4916989;29;20281;-71
2023/04/14 08:24:37;;;;;;;11.87;9.63;;;13.40;99.90;;;;;;4901817;29;20187;-74
2023/04/14 08:27:03;;;;;;;10.93;9.87;;;13.60;99.90;;;;;;4918537;29;20226;-76
2023/04/14 08:29:29;;;;;;;5.80;5.27;;;13.80;99.90;;;;;;4922844;29;20217;-72
2023/04/14 08:31:54;;;;;;;9.33;7.07;;;14.10;99.90;;;;;;4916938;29;20191;-73
2023/04/14 08:34:20;;;;;;;10.83;5.87;;;14.20;99.90;;;;;;4916594;29;20207;-73
2023/04/14 08:36:46;;;;;;;6.80;4.80;;;14.10;99.90;;;;;;4916608;29;20217;-74
2023/04/14 08:39:13;;;;;;;5.83;5.33;;;14.10;99.90;;;;;;4916352;29;20529;-73
2023/04/14 08:41:39;;;;;;;8.47;6.33;;;13.90;99.90;;;;;;4915842;29;20199;-73
2023/04/14 08:44:05;;;;;;;10.53;6.40;;;14.10;99.90;;;;;;4916405;29;20179;-75
2023/04/14 08:46:31;;;;;;;6.87;5.53;;;14.10;99.90;;;;;;4938686;29;20691;-73
2023/04/14 08:49:05;;;;;;;7.93;5.20;;;14.30;99.90;;;;;;4924221;29;20197;-74
2023/04/14 08:51:34;;;;;;;13.63;12.63;;;14.70;99.90;;;;;;4933172;29;20198;-73
2023/04/14 08:54:03;;;;;;;14.30;13.10;;;14.60;99.90;;;;;;4919872;29;20191;-74
2023/04/14 08:56:33;;;;;;;15.47;13.97;;;14.50;99.90;;;;;;4910959;29;20615;-74
2023/04/14 08:59:00;;;;;;;11.93;8.57;;;14.40;99.90;;;;;;4909222;29;20238;-73
2023/04/14 09:01:29;;;;;;;15.77;14.43;;;14.50;99.90;;;;;;4916382;29;20660;-72
2023/04/14 09:03:56;;;;;;;11.13;10.13;;;14.60;99.90;;;;;;4931438;29;20710;-74
2023/04/14 09:06:23;;;;;;;16.33;15.13;;;14.80;99.90;;;;;;4917715;29;20596;-73
2023/04/14 09:08:48;;;;;;;15.33;14.03;;;14.90;99.90;;;;;;4927793;29;20215;-74
2023/04/14 09:11:17;;;;;;;15.57;14.53;;;14.80;99.90;;;;;;4915840;29;20219;-73
2023/04/14 09:13:43;;;;;;;12.20;11.10;;;14.70;99.90;;;;;;4916247;29;20193;-73
2023/04/14 09:16:11;;;;;;;16.93;15.63;;;14.30;99.90;;;;;;4935295;23;20230;-68
2023/04/14 09:18:38;;;;;;;14.10;13.07;;;13.80;99.90;;;;;;4916062;29;20208;-68
2023/04/14 09:21:04;;;;;;;8.27;7.47;;;13.30;99.90;;;;;;4934963;29;20185;-68
2023/04/14 09:23:30;;;;;;;8.00;6.87;;;13.50;99.90;;;;;;4934094;29;20182;-69
2023/04/14 09:25:57;;;;;;;12.33;11.13;;;14.00;99.90;;;;;;4912364;29;20251;-68
2023/04/14 09:28:23;;;;;;;13.77;12.47;;;14.30;99.90;;;;;;4915472;29;20187;-68
2023/04/14 09:30:49;;;;;;;12.63;11.50;;;14.40;99.90;;;;;;4920813;29;20251;-68
2023/04/14 09:33:20;;;;;;;12.93;12.00;;;13.90;99.90;;;;;;4917852;29;20195;-68
2023/04/14 09:35:50;;;;;;;14.80;13.70;;;13.60;99.90;;;;;;4915834;29;20293;-69
2023/04/14 09:38:36;;;;;;;13.73;12.57;;;13.50;99.90;;;;;;4913860;29;20648;-69
2023/04/14 09:41:04;;;;;;;12.37;11.37;;;14.00;99.90;;;;;;4896569;29;20239;-69
2023/04/14 09:43:29;;;;;;;13.27;12.17;;;14.60;99.90;;;;;;4896809;29;20212;-69
2023/04/14 09:45:57;;;;;;;12.10;11.20;;;15.20;99.90;;;;;;4896590;29;20266;-68
2023/04/14 09:48:24;;;;;;;19.80;18.40;;;15.20;99.90;;;;;;4897824;29;20653;-69
2023/04/14 09:51:08;;;;;;;19.03;18.00;;;15.10;99.90;;;;;;4917376;29;20187;-68
2023/04/14 09:53:39;;;;;;;17.43;16.37;;;15.60;99.90;;;;;;4934532;29;20269;-69
2023/04/14 09:56:11;;;;;;;15.93;14.93;;;16.20;99.90;;;;;;4934084;29;20252;-69
2023/04/14 09:58:39;;;;;;;17.07;15.27;;;17.10;99.90;;;;;;4929172;29;20598;-69
2023/04/14 10:01:19;;;;;;;12.20;10.70;;;17.40;99.90;;;;;;4898412;29;20207;-71
2023/04/14 10:03:47;;;;;;;10.40;9.47;;;16.60;99.90;;;;;;4915097;29;20250;-69
2023/04/14 10:06:17;;;;;;;8.90;7.57;;;16.90;99.90;;;;;;4898320;29;20210;-69
2023/04/14 10:08:45;;;;;;;9.97;9.10;;;16.20;99.90;;;;;;4909282;29;20179;-69
2023/04/14 10:11:23;;;;;;;11.00;9.97;;;16.20;99.90;;;;;;4923054;29;20601;-69
2023/04/14 10:13:57;;;;;;;9.93;9.03;;;16.10;99.90;;;;;;4894831;29;20194;-69
2023/04/14 10:16:23;;;;;;;11.20;6.67;;;16.40;99.90;;;;;;4894102;29;20598;-68
2023/04/14 10:18:50;;;;;;;7.27;5.77;;;17.00;99.90;;;;;;4900007;29;20191;-69
2023/04/14 10:21:16;;;;;;;9.93;8.93;;;17.70;99.90;;;;;;4914704;29;20186;-69
2023/04/14 10:23:43;;;;;;;7.90;5.17;;;18.30;96.30;;;;;;4897620;29;20186;-69
2023/04/14 10:26:11;;;;;;;6.37;5.10;;;18.60;95.70;;;;;;4897958;29;20219;-69
2023/04/14 10:28:39;;;;;;;8.30;4.53;;;18.90;96.60;;;;;;4914136;29;20292;-70
2023/04/14 10:31:28;;;;;;;11.37;8.40;;;18.60;96.90;;;;;;4897443;29;20211;-69
2023/04/14 10:33:54;;;;;;;6.73;5.00;;;18.50;94.70;;;;;;4901678;29;20202;-69
2023/04/14 10:36:24;;;;;;;7.90;5.63;;;19.00;96.20;;;;;;4912999;29;20210;-69
2023/04/14 10:38:58;;;;;;;10.80;5.13;;;18.90;92.80;;;;;;4917469;29;20183;-69
2023/04/14 10:41:24;;;;;;;5.87;5.00;;;17.30;93.80;;;;;;4913803;29;20556;-69
2023/04/14 10:43:50;;;;;;;5.83;4.57;;;16.50;97.20;;;;;;4912313;29;20278;-68
2023/04/14 10:50:13;;;;;;;9.77;5.23;;;16.90;96.50;;;;;;4900724;29;20549;-71
2023/04/14 10:56:28;;;;;;;8.40;7.30;;;16.20;96.20;;;;;;4933333;29;20201;-70
2023/04/14 10:58:55;;;;;;;9.60;7.20;;;17.40;96.40;;;;;;4921419;29;20183;-70
2023/04/14 11:01:23;;;;;;;9.40;6.93;;;17.70;94.60;;;;;;4914175;29;20183;-70
2023/04/14 11:03:49;;;;;;;15.40;11.07;;;16.70;94.40;;;;;;4914726;29;20207;-69
2023/04/14 11:06:51;;;;;;;10.60;8.90;;;15.90;95.50;;;;;;4914536;29;20219;-70
2023/04/14 11:09:33;;;;;;;8.43;5.07;;;15.00;97.60;;;;;;4883490;29;20596;-71
2023/04/14 11:12:23;;;;;;;6.07;4.87;;;14.90;98.10;;;;;;4895016;29;20184;-74
2023/04/14 11:14:53;;;;;;;5.87;4.07;;;14.80;97.10;;;;;;4895507;29;20180;-74
2023/04/14 11:17:23;;;;;;;8.93;3.97;;;14.30;96.80;;;;;;4878669;29;20250;-81
2023/04/14 11:19:54;;;;;;;8.60;7.73;;;13.80;98.20;;;;;;4918844;29;20186;-72
2023/04/14 11:22:40;;;;;;;9.47;5.10;;;14.30;98.40;;;;;;4910774;29;20195;-72
2023/04/14 11:25:09;;;;;;;6.80;6.23;;;15.80;94.20;;;;;;4918195;29;20848;-72
2023/04/14 11:27:36;;;;;;;7.70;6.07;;;17.10;93.90;;;;;;4911478;29;20740;-72
2023/04/14 11:30:05;;;;;;;5.57;3.90;;;18.40;92.60;;;;;;4900659;29;20230;-72
2023/04/14 11:32:49;;;;;;;7.03;4.10;;;18.80;87.50;;;;;;4917785;29;20249;-72
2023/04/14 11:35:15;;;;;;;4.93;4.27;;;17.40;87.60;;;;;;4917916;29;20183;-72
2023/04/14 11:37:41;;;;;;;5.00;4.50;;;16.20;88.30;;;;;;4900556;29;20286;-72
2023/04/14 11:40:09;;;;;;;5.70;3.80;;;15.60;90.10;;;;;;4881865;29;20191;-72
2023/04/14 11:42:35;;;;;;;5.23;4.73;;;15.40;92.20;;;;;;4916873;29;20178;-72
2023/04/14 11:45:04;;;;;;;6.37;4.30;;;15.50;92.40;;;;;;4908080;29;20569;-70
2023/04/14 11:47:30;;;;;;;5.03;4.00;;;15.90;87.40;;;;;;4922854;29;20301;-71
2023/04/14 11:50:00;;;;;;;6.40;4.80;;;17.10;89.70;;;;;;4916239;29;20183;-69
2023/04/14 11:52:26;;;;;;;4.17;3.43;;;18.50;83.70;;;;;;4917119;29;20247;-69
2023/04/14 11:54:52;;;;;;;6.87;6.27;;;19.80;83.20;;;;;;4916691;29;20214;-69
2023/04/14 12:18:41;;;;;;;15.43;14.37;;;20.40;60.90;;;;;;5131414;23;20284;-67
2023/04/14 12:21:07;;;;;;;7.80;7.10;;;20.10;66.70;;;;;;4949833;29;20198;-67
2023/04/14 12:23:35;;;;;;;9.48;5.13;;;20.30;65.80;;;;;;4954650;29;20197;-67
2023/04/14 12:26:01;;;;;;;5.82;4.35;;;21.30;61.90;;;;;;4954681;29;20268;-68
2023/04/14 12:28:28;;;;;;;5.68;4.45;;;22.10;61.60;;;;;;4923442;29;20266;-67
2023/04/14 12:31:02;;;;;;;5.07;3.58;;;22.90;61.80;;;;;;4916845;29;20191;-68
2023/04/14 12:33:30;;;;;;;5.65;3.67;;;23.70;56.10;;;;;;4951404;23;20728;-70
2023/04/14 12:36:06;;;;;;;5.55;3.47;;;22.60;55.70;;;;;;4935628;29;20205;-70
2023/04/14 12:38:33;;;;;;;6.35;4.75;;;22.10;54.70;;;;;;4931305;29;20185;-70
2023/04/14 12:40:59;;;;;;;5.13;4.30;;;21.00;53.70;;;;;;4935226;29;20210;-70
2023/04/14 12:43:34;;;;;;;4.07;3.70;;;19.00;57.80;;;;;;4921304;28;20206;-70
2023/04/14 12:46:02;;;;;;;4.50;3.13;;;17.70;59.20;;;;;;4916269;29;20580;-70
2023/04/14 12:48:57;;;;;;;4.40;3.60;;;18.30;59.20;;;;;;4916007;29;20604;-70
2023/04/14 12:51:23;;;;;;;4.73;2.93;;;20.20;56.40;;;;;;4907597;29;20215;-71
2023/04/14 12:53:50;;;;;;;5.33;4.77;;;20.60;54.00;;;;;;4917041;29;20259;-70
2023/04/14 12:56:22;;;;;;;3.47;3.27;;;19.80;51.90;;;;;;4917233;29;20282;-70
2023/04/14 12:58:49;;;;;;;4.28;3.63;;;19.80;53.90;;;;;;4916121;29;20193;-70
2023/04/14 13:01:16;;;;;;;3.95;3.65;;;21.30;56.00;;;;;;4917727;29;20209;-71
2023/04/14 13:03:50;;;;;;;3.83;3.10;;;22.90;53.30;;;;;;4917745;29;20199;-70
2023/04/14 13:06:18;;;;;;;6.22;4.97;;;24.30;53.80;;;;;;4915429;29;20282;-70
2023/04/14 13:08:48;;;;;;;5.32;4.82;;;25.20;47.00;;;;;;4916453;29;20179;-70
2023/04/14 13:11:15;;;;;;;9.30;6.30;;;24.60;48.90;;;;;;4916278;29;20220;-70
2023/04/14 13:13:43;;;;;;;8.20;6.88;;;23.80;52.90;;;;;;4916814;29;20198;-70
2023/04/14 13:16:09;;;;;;;9.55;7.32;;;22.10;54.10;;;;;;4916467;29;20422;-70
2023/04/14 13:18:34;;;;;;;10.88;6.07;;;20.10;57.30;;;;;;4915919;29;20226;-69
2023/04/14 13:21:02;;;;;;;6.73;5.37;;;18.00;59.80;;;;;;4915998;29;20263;-70
2023/04/14 13:23:32;;;;;;;10.20;9.50;;;16.90;66.20;;;;;;4914737;29;20716;-70
2023/04/14 13:25:58;;;;;;;16.40;15.30;;;16.40;66.70;;;;;;4916280;29;20203;-70
2023/04/14 13:28:24;;;;;;;13.40;12.37;;;16.00;68.50;;;;;;4914364;29;20187;-70
2023/04/14 13:30:52;;;;;;;14.00;12.83;;;15.60;68.40;;;;;;4914733;29;20269;-70
2023/04/14 13:33:22;;;;;;;13.00;12.13;;;15.50;71.30;;;;;;4914753;29;20218;-71
2023/04/14 13:35:48;;;;;;;13.47;12.60;;;15.50;69.20;;;;;;4915959;29;20191;-70
2023/04/14 13:38:14;;;;;;;12.37;11.73;;;15.30;66.70;;;;;;4915889;29;20645;-71
2023/04/14 13:40:40;;;;;;;9.57;8.87;;;16.70;65.30;;;;;;4914696;29;20250;-71
2023/04/14 13:43:07;;;;;;;13.60;12.57;;;18.20;61.20;;;;;;4914540;29;20427;-70
2023/04/14 13:45:34;;;;;;;11.93;11.03;;;19.30;59.80;;;;;;4915734;29;20731;-69
2023/04/14 13:48:00;;;;;;;8.40;5.80;;;20.50;58.90;;;;;;4915510;29;20190;-70
2023/04/14 13:50:26;;;;;;;5.60;4.45;;;21.50;57.70;;;;;;4915593;29;20740;-69
2023/04/14 13:52:52;;;;;;;5.07;4.68;;;22.80;54.80;;;;;;4915818;29;20210;-70
2023/04/14 13:55:18;;;;;;;7.00;3.80;;;22.20;54.50;;;;;;4915295;29;20648;-69
2023/04/14 13:57:44;;;;;;;5.18;4.10;;;22.10;55.30;;;;;;4915508;29;20187;-71
2023/04/14 14:00:11;;;;;;;4.80;4.13;;;21.90;56.40;;;;;;4914073;29;20183;-71
2023/04/14 14:02:40;;;;;;;4.30;3.90;;;21.70;56.30;;;;;;4915527;29;20238;-69
2023/04/14 14:05:07;;;;;;;5.38;4.20;;;21.80;55.90;;;;;;4915456;29;20183;-72
2023/04/14 14:07:34;;;;;;;4.68;3.13;;;21.70;56.40;;;;;;4914922;29;20596;-71
2023/04/14 14:10:00;;;;;;;5.82;3.67;;;21.80;52.80;;;;;;4908331;29;20278;-69
2023/04/14 14:12:26;;;;;;;6.55;3.25;;;21.80;54.30;;;;;;4916529;29;20233;-71
2023/04/14 14:14:52;;;;;;;4.25;3.85;;;22.20;52.60;;;;;;4916449;29;20960;-70
2023/04/14 14:17:18;;;;;;;4.57;4.18;;;23.10;50.50;;;;;;4914621;29;20183;-70
2023/04/14 14:19:44;;;;;;;6.25;5.78;;;23.10;48.70;;;;;;4897762;29;20183;-70
2023/04/14 14:22:09;;;;;;;8.25;7.63;;;23.20;47.90;;;;;;4914836;29;20675;-70
2023/04/14 14:24:36;;;;;;;10.23;9.65;;;23.10;46.80;;;;;;4897856;29;20213;-70
2023/04/14 14:27:01;;;;;;;8.60;8.00;;;24.20;46.60;;;;;;4897738;29;20565;-70
2023/04/14 14:29:28;;;;;;;8.27;6.95;;;22.50;46.70;;;;;;4914698;29;20206;-71
2023/04/14 14:31:54;;;;;;;6.97;6.28;;;21.30;49.40;;;;;;4914969;29;20229;-71
2023/04/14 14:34:20;;;;;;;9.82;9.27;;;22.20;48.80;;;;;;4898344;29;20643;-71
2023/04/14 14:36:46;;;;;;;8.52;7.93;;;22.60;45.00;;;;;;4897785;29;20186;-69
2023/04/14 14:39:12;;;;;;;12.07;11.23;;;22.60;47.80;;;;;;4897514;29;20234;-69
2023/04/14 14:41:38;;;;;;;8.98;8.20;;;23.50;46.40;;;;;;4897651;29;20191;-69
2023/04/14 14:44:04;;;;;;;14.60;13.70;;;23.60;46.60;;;;;;4914651;29;20198;-70
2023/04/14 14:46:30;;;;;;;23.00;21.70;;;23.80;44.80;;;;;;4915026;29;20215;-69
2023/04/14 14:48:56;;;;;;;9.32;8.70;;;22.20;44.40;;;;;;4897503;29;20310;-69
2023/04/14 14:51:23;;;;;;;5.97;5.53;;;20.40;49.90;;;;;;4914499;29;20266;-70
2023/04/14 14:53:49;;;;;;;6.72;6.10;;;20.00;52.40;;;;;;4914449;29;20651;-69
2023/04/14 14:56:15;;;;;;;6.03;4.88;;;20.80;50.90;;;;;;4919817;29;20273;-68
2023/04/14 14:58:41;;;;;;;5.75;5.10;;;20.60;50.10;;;;;;4920149;29;20546;-69
2023/04/14 15:01:07;;;;;;;5.00;4.75;;;20.20;47.50;;;;;;4903823;29;20190;-69
2023/04/14 15:03:32;;;;;;;5.32;4.72;;;20.80;46.60;;;;;;4903647;29;20202;-69
2023/04/14 15:05:58;;;;;;;10.88;10.07;;;22.70;47.00;;;;;;4920260;29;20213;-69
2023/04/14 15:08:25;;;;;;;11.77;11.05;;;23.10;43.30;;;;;;4920244;29;20214;-69
2023/04/14 15:10:51;;;;;;;9.82;9.13;;;22.40;43.80;;;;;;4920286;29;20217;-69
2023/04/14 15:13:16;;;;;;;9.25;8.45;;;22.90;46.80;;;;;;4920374;29;20278;-69
2023/04/14 15:15:42;;;;;;;9.35;8.68;;;22.20;45.80;;;;;;4920601;29;20182;-70
2023/04/14 15:18:09;;;;;;;6.32;5.05;;;20.20;49.00;;;;;;4920697;29;20187;-69
2023/04/14 15:20:35;;;;;;;5.47;5.07;;;20.20;51.20;;;;;;4920626;29;20179;-69
2023/04/14 15:23:01;;;;;;;5.50;5.00;;;21.30;50.40;;;;;;4920500;29;20322;-69
2023/04/14 15:25:27;;;;;;;6.75;6.25;;;22.20;47.80;;;;;;4920671;29;20269;-70
2023/04/14 15:27:53;;;;;;;8.18;7.43;;;23.40;46.60;;;;;;4904157;29;20636;-70
2023/04/14 15:30:22;;;;;;;12.48;11.77;;;24.20;44.00;;;;;;4922130;29;20260;-70
2023/04/14 15:32:49;;;;;;;14.27;13.30;;;24.90;41.00;;;;;;4921762;29;20695;-70
2023/04/14 15:35:15;;;;;;;12.80;12.00;;;25.20;40.80;;;;;;4921119;29;20210;-70
2023/04/14 15:37:41;;;;;;;11.77;10.68;;;25.20;42.50;;;;;;4919700;29;20182;-70
2023/04/14 15:40:09;;;;;;;9.50;8.82;;;24.60;40.50;;;;;;4920496;29;20183;-70
2023/04/14 15:42:36;;;;;;;8.70;8.20;;;24.40;42.00;;;;;;4920550;29;20214;-71
2023/04/14 15:45:01;;;;;;;8.35;7.80;;;24.50;42.80;;;;;;4920479;29;20187;-69
2023/04/14 15:47:27;;;;;;;8.73;8.02;;;23.70;42.90;;;;;;4903364;29;20301;-69
2023/04/14 15:49:53;;;;;;;9.95;9.20;;;23.50;42.60;;;;;;4920324;29;20187;-69
2023/04/14 15:52:19;;;;;;;10.85;10.15;;;22.50;43.50;;;;;;4920469;29;20289;-69
2023/04/14 15:54:45;;;;;;;15.48;14.57;;;22.90;43.90;;;;;;4903695;29;20683;-69
2023/04/14 15:57:11;;;;;;;16.75;15.75;;;22.80;44.10;;;;;;4920906;29;20190;-69
2023/04/14 15:59:37;;;;;;;15.02;13.98;;;22.30;44.60;;;;;;4923558;29;20254;-70
2023/04/14 16:02:03;;;;;;;11.77;10.88;;;22.10;43.50;;;;;;4923677;29;20565;-70
2023/04/14 16:04:29;;;;;;;7.72;7.03;;;21.50;47.20;;;;;;4904190;29;20189;-71
2023/04/14 16:06:55;;;;;;;5.95;5.43;;;20.80;46.90;;;;;;4902016;29;20291;-69
2023/04/14 16:09:21;;;;;;;5.93;5.18;;;20.60;48.30;;;;;;4917518;29;20268;-69